Time;durP1;ratioP1;P1;durP2;ratioP2;P2;SDS_P1;SDS_P2;PMS_P1;PMS_P2;Temp;Humidity;BMP_temperature;BMP_pressure;BME280_temperature;BME280_humidity;BME280_pressure;Samples;Min_cycle;Max_cycle;Signal;HPM_P1;HPM_P2
2024/01/22 00:00:02;;;;;;;8.52;2.17;;;;;;;;;;5069646;28;20393;-77
2024/01/22 00:02:27;;;;;;;9.40;3.25;;;;;;;;;;5072751;28;20048;-77
2024/01/22 00:04:52;;;;;;;7.43;1.77;;;;;;;;;;5078696;28;20028;-77
2024/01/22 00:07:18;;;;;;;6.57;2.45;;;;;;;;;;5074780;28;20063;-77
2024/01/22 00:09:43;;;;;;;4.88;1.83;;;;;;;;;;5069628;28;20038;-76
2024/01/22 00:12:08;;;;;;;6.00;2.45;;;;;;;;;;5073370;28;20517;-77
2024/01/22 00:14:33;;;;;;;5.03;1.83;;;;;;;;;;5070669;28;20016;-77
2024/01/22 00:16:58;;;;;;;5.50;1.75;;;;;;;;;;5072347;28;20611;-77
2024/01/22 00:19:23;;;;;;;4.97;1.58;;;;;;;;;;5077095;28;20028;-77
2024/01/22 00:21:49;;;;;;;5.53;1.88;;;;;;;;;;5069898;28;20048;-77
2024/01/22 00:24:14;;;;;;;4.43;1.90;;;;;;;;;;5073454;28;20035;-77
2024/01/22 00:26:39;;;;;;;6.03;2.17;;;;;;;;;;5075266;28;20107;-77
2024/01/22 00:29:04;;;;;;;5.65;1.95;;;;;;;;;;5069272;28;20029;-77
2024/01/22 00:31:29;;;;;;;4.45;1.45;;;;;;;;;;5070839;28;20078;-77
2024/01/22 00:33:54;;;;;;;4.05;1.60;;;;;;;;;;5071658;28;20547;-76
2024/01/22 00:36:20;;;;;;;6.70;1.90;;;;;;;;;;5073548;28;20128;-77
2024/01/22 00:38:45;;;;;;;5.93;2.33;;;;;;;;;;5069761;28;20032;-76
2024/01/22 00:41:10;;;;;;;7.15;1.88;;;;;;;;;;5077289;28;20048;-77
2024/01/22 00:43:36;;;;;;;6.45;2.55;;;;;;;;;;5069563;28;20044;-76
2024/01/22 00:46:01;;;;;;;7.35;2.70;;;;;;;;;;5075251;28;20051;-76
2024/01/22 00:48:27;;;;;;;7.85;3.30;;;;;;;;;;5069931;28;20020;-77
2024/01/22 00:50:52;;;;;;;8.75;4.05;;;;;;;;;;5073406;28;20128;-77
2024/01/22 00:53:17;;;;;;;9.57;4.10;;;;;;;;;;5072046;28;20020;-76
2024/01/22 00:55:42;;;;;;;7.13;3.63;;;;;;;;;;5077033;28;20044;-77
2024/01/22 00:58:07;;;;;;;5.82;3.47;;;;;;;;;;5068181;28;20467;-77
2024/01/22 01:00:33;;;;;;;7.90;4.03;;;;;;;;;;5075339;28;20027;-77
2024/01/22 01:02:58;;;;;;;9.50;4.38;;;;;;;;;;5070741;28;20545;-77
2024/01/22 01:05:23;;;;;;;11.07;4.82;;;;;;;;;;5081213;28;20078;-77
2024/01/22 01:07:48;;;;;;;9.63;4.15;;;;;;;;;;5072012;28;20040;-77
2024/01/22 01:10:13;;;;;;;8.05;4.07;;;;;;;;;;5073792;28;20028;-77
2024/01/22 01:12:38;;;;;;;8.82;3.78;;;;;;;;;;5071881;28;20075;-77
2024/01/22 01:15:07;;;;;;;7.55;3.97;;;;;;;;;;5077322;28;20051;-77
2024/01/22 01:17:32;;;;;;;12.30;4.75;;;;;;;;;;5073369;28;20036;-77
2024/01/22 01:19:57;;;;;;;10.85;5.53;;;;;;;;;;5071517;28;20095;-76
2024/01/22 01:22:23;;;;;;;11.88;5.95;;;;;;;;;;5072806;28;20048;-77
2024/01/22 01:24:48;;;;;;;10.13;5.75;;;;;;;;;;5079592;28;20463;-77
2024/01/22 01:27:14;;;;;;;9.63;6.28;;;;;;;;;;5077150;28;20158;-77
2024/01/22 01:29:39;;;;;;;10.90;6.10;;;;;;;;;;5071176;28;20400;-77
2024/01/22 01:32:05;;;;;;;10.88;6.03;;;;;;;;;;5073676;28;20037;-77
2024/01/22 01:34:30;;;;;;;11.77;5.97;;;;;;;;;;5079142;28;20036;-77
2024/01/22 01:36:55;;;;;;;9.32;5.18;;;;;;;;;;5073167;28;20044;-77
2024/01/22 01:39:20;;;;;;;11.82;5.65;;;;;;;;;;5072411;28;20024;-77
2024/01/22 01:41:49;;;;;;;11.65;6.18;;;;;;;;;;5071141;28;20025;-77
2024/01/22 01:44:14;;;;;;;13.77;5.90;;;;;;;;;;5083692;28;20016;-77
2024/01/22 01:46:39;;;;;;;11.13;5.93;;;;;;;;;;5080513;28;20480;-77
2024/01/22 01:49:05;;;;;;;16.42;6.63;;;;;;;;;;5072170;28;20116;-77
2024/01/22 01:51:30;;;;;;;11.02;5.60;;;;;;;;;;5077655;28;20028;-77
2024/01/22 01:53:56;;;;;;;10.27;4.72;;;;;;;;;;5072522;28;20037;-77
2024/01/22 01:56:21;;;;;;;9.68;4.90;;;;;;;;;;5077105;28;20036;-77
2024/01/22 01:58:47;;;;;;;8.20;4.75;;;;;;;;;;5071864;28;20440;-77
2024/01/22 02:01:14;;;;;;;12.88;6.25;;;;;;;;;;5078813;28;20033;-77
2024/01/22 02:03:40;;;;;;;12.43;5.93;;;;;;;;;;5072094;28;20028;-77
2024/01/22 02:06:05;;;;;;;11.05;5.85;;;;;;;;;;5079166;28;20036;-77
2024/01/22 02:08:30;;;;;;;10.40;6.20;;;;;;;;;;5072307;28;20397;-77
2024/01/22 02:10:55;;;;;;;10.18;5.07;;;;;;;;;;5076724;28;20392;-77
2024/01/22 02:13:21;;;;;;;10.65;5.72;;;;;;;;;;5072099;28;20401;-77
2024/01/22 02:15:46;;;;;;;10.38;5.50;;;;;;;;;;5062708;28;20480;-76
2024/01/22 02:18:11;;;;;;;11.15;5.55;;;;;;;;;;5072055;28;20042;-77
2024/01/22 02:20:36;;;;;;;10.30;5.95;;;;;;;;;;5078153;28;20031;-77
2024/01/22 02:23:03;;;;;;;11.73;5.65;;;;;;;;;;5076000;28;20024;-77
2024/01/22 02:25:28;;;;;;;11.25;5.68;;;;;;;;;;5087734;28;20515;-77
2024/01/22 02:27:53;;;;;;;9.82;5.07;;;;;;;;;;5075662;28;20056;-77
2024/01/22 02:30:19;;;;;;;11.32;5.28;;;;;;;;;;5075430;28;20492;-77
2024/01/22 02:32:44;;;;;;;11.13;5.45;;;;;;;;;;5079333;28;20032;-77
2024/01/22 02:35:09;;;;;;;14.27;5.85;;;;;;;;;;5078368;28;20020;-76
2024/01/22 02:37:34;;;;;;;11.23;5.80;;;;;;;;;;5076341;28;20039;-76
2024/01/22 02:39:59;;;;;;;12.77;6.25;;;;;;;;;;5071845;28;20064;-76
2024/01/22 02:42:24;;;;;;;10.70;5.03;;;;;;;;;;5074710;28;20059;-76
2024/01/22 02:44:50;;;;;;;11.07;5.65;;;;;;;;;;5078834;28;20032;-76
2024/01/22 02:47:15;;;;;;;9.88;4.88;;;;;;;;;;5078441;28;20024;-76
2024/01/22 02:49:40;;;;;;;9.88;5.78;;;;;;;;;;5076430;28;20042;-76
2024/01/22 02:52:05;;;;;;;9.57;5.10;;;;;;;;;;5071517;28;20024;-76
2024/01/22 02:54:30;;;;;;;11.48;5.18;;;;;;;;;;5076190;28;20027;-76
2024/01/22 02:56:55;;;;;;;9.88;5.72;;;;;;;;;;5079317;28;20123;-77
2024/01/22 02:59:21;;;;;;;11.57;5.07;;;;;;;;;;5077059;28;20396;-76
2024/01/22 03:01:46;;;;;;;11.13;5.75;;;;;;;;;;5080483;28;20024;-76
2024/01/22 03:04:11;;;;;;;9.90;6.38;;;;;;;;;;5079470;28;20108;-77
2024/01/22 03:06:37;;;;;;;10.23;5.43;;;;;;;;;;5076044;28;20063;-76
2024/01/22 03:09:03;;;;;;;9.32;5.43;;;;;;;;;;5075708;28;20021;-77
2024/01/22 03:11:28;;;;;;;9.18;4.82;;;;;;;;;;5075161;28;20118;-77
2024/01/22 03:13:53;;;;;;;9.73;5.35;;;;;;;;;;5073089;28;20028;-77
2024/01/22 03:16:18;;;;;;;8.70;4.65;;;;;;;;;;5082257;28;20036;-77
2024/01/22 03:18:43;;;;;;;9.65;4.70;;;;;;;;;;5069259;28;20045;-77
2024/01/22 03:21:08;;;;;;;8.30;4.68;;;;;;;;;;5070903;28;20086;-76
2024/01/22 03:23:34;;;;;;;10.63;4.72;;;;;;;;;;5076166;28;20031;-77
2024/01/22 03:25:59;;;;;;;10.52;5.35;;;;;;;;;;5081134;28;20040;-76
2024/01/22 03:28:24;;;;;;;8.55;4.60;;;;;;;;;;5070544;28;20029;-77
2024/01/22 03:30:49;;;;;;;7.97;5.05;;;;;;;;;;5071370;28;20087;-77
2024/01/22 03:33:14;;;;;;;9.27;4.53;;;;;;;;;;5079114;28;20025;-77
2024/01/22 03:35:40;;;;;;;9.57;4.80;;;;;;;;;;5078935;28;20041;-76
2024/01/22 03:38:05;;;;;;;7.78;4.30;;;;;;;;;;5071172;28;20034;-77
2024/01/22 03:40:30;;;;;;;11.15;5.22;;;;;;;;;;5078263;28;20105;-77
2024/01/22 03:42:55;;;;;;;8.27;4.55;;;;;;;;;;5080405;28;20028;-77
2024/01/22 03:45:20;;;;;;;10.57;5.93;;;;;;;;;;5078298;28;20462;-77
2024/01/22 03:47:46;;;;;;;8.02;4.80;;;;;;;;;;5072125;28;20033;-77
2024/01/22 03:50:11;;;;;;;8.77;4.30;;;;;;;;;;5072635;28;20046;-76
2024/01/22 03:52:36;;;;;;;7.60;4.22;;;;;;;;;;5075687;28;20035;-77
2024/01/22 03:55:02;;;;;;;8.68;4.57;;;;;;;;;;5078822;28;20028;-77
2024/01/22 03:57:27;;;;;;;9.93;4.82;;;;;;;;;;5073671;28;20492;-77
2024/01/22 03:59:52;;;;;;;8.05;4.38;;;;;;;;;;5072098;28;20107;-77
2024/01/22 04:02:18;;;;;;;8.10;4.18;;;;;;;;;;5071556;28;20074;-76
2024/01/22 04:04:43;;;;;;;13.43;5.40;;;;;;;;;;5075663;28;20024;-77
2024/01/22 04:07:08;;;;;;;8.60;4.43;;;;;;;;;;5073914;28;20050;-76
2024/01/22 04:09:33;;;;;;;7.05;4.03;;;;;;;;;;5085685;28;20495;-77
2024/01/22 04:11:58;;;;;;;7.93;3.67;;;;;;;;;;5071764;28;20043;-77
2024/01/22 04:14:24;;;;;;;6.38;3.72;;;;;;;;;;5076948;28;20111;-77
2024/01/22 04:16:50;;;;;;;8.60;3.92;;;;;;;;;;5074003;28;20147;-77
2024/01/22 04:19:15;;;;;;;6.25;3.28;;;;;;;;;;5074210;28;20086;-77
2024/01/22 04:21:44;;;;;;;6.43;3.08;;;;;;;;;;5068777;28;20182;-77
2024/01/22 04:24:09;;;;;;;7.05;3.40;;;;;;;;;;5079381;28;20059;-77
2024/01/22 04:26:34;;;;;;;7.32;3.42;;;;;;;;;;5075656;28;20060;-78
2024/01/22 04:28:59;;;;;;;6.25;3.33;;;;;;;;;;5072010;28;20369;-78
2024/01/22 04:31:24;;;;;;;7.43;3.50;;;;;;;;;;5077978;28;20039;-78
2024/01/22 04:33:50;;;;;;;6.22;3.00;;;;;;;;;;5069951;28;20464;-79
2024/01/22 04:36:15;;;;;;;6.18;3.33;;;;;;;;;;5076900;28;20032;-78
2024/01/22 04:38:41;;;;;;;6.85;3.30;;;;;;;;;;5062354;28;20036;-78
2024/01/22 04:41:06;;;;;;;5.47;2.78;;;;;;;;;;5074772;28;20028;-78
2024/01/22 04:43:32;;;;;;;6.43;3.13;;;;;;;;;;5074287;28;20016;-78
2024/01/22 04:45:57;;;;;;;8.68;3.53;;;;;;;;;;5080019;28;20039;-78
2024/01/22 04:48:22;;;;;;;5.70;2.85;;;;;;;;;;5074494;28;20020;-78
2024/01/22 04:50:47;;;;;;;6.07;2.90;;;;;;;;;;5073005;28;20040;-78
2024/01/22 04:53:13;;;;;;;5.95;3.05;;;;;;;;;;5073294;28;20032;-78
2024/01/22 04:55:38;;;;;;;7.32;2.92;;;;;;;;;;5087602;28;20028;-78
2024/01/22 04:58:03;;;;;;;6.30;2.50;;;;;;;;;;5074883;28;20037;-79
2024/01/22 05:00:28;;;;;;;5.32;2.83;;;;;;;;;;5072884;28;20072;-78
2024/01/22 05:02:54;;;;;;;5.15;2.50;;;;;;;;;;5074160;28;20487;-79
2024/01/22 05:05:19;;;;;;;5.10;2.60;;;;;;;;;;5083683;28;20111;-79
2024/01/22 05:07:44;;;;;;;5.28;2.53;;;;;;;;;;5076614;28;20051;-78
2024/01/22 05:10:09;;;;;;;5.80;2.50;;;;;;;;;;5072981;28;20032;-79
2024/01/22 05:12:35;;;;;;;5.57;3.03;;;;;;;;;;5074570;28;20028;-79
2024/01/22 05:15:00;;;;;;;5.82;2.70;;;;;;;;;;5081021;28;20419;-79
2024/01/22 05:17:27;;;;;;;5.78;2.92;;;;;;;;;;5077175;28;20107;-79
2024/01/22 05:19:53;;;;;;;6.75;3.28;;;;;;;;;;5073798;28;20028;-79
2024/01/22 05:22:18;;;;;;;6.13;3.00;;;;;;;;;;5074447;28;20028;-79
2024/01/22 05:24:43;;;;;;;5.78;2.90;;;;;;;;;;5079308;28;20025;-81
2024/01/22 05:27:09;;;;;;;5.70;2.67;;;;;;;;;;5074514;28;20165;-81
2024/01/22 05:29:34;;;;;;;6.03;3.03;;;;;;;;;;5077478;28;20112;-81
2024/01/22 05:32:02;;;;;;;6.60;2.70;;;;;;;;;;5079862;28;20028;-81
2024/01/22 05:34:27;;;;;;;6.97;2.50;;;;;;;;;;5076874;28;20031;-81
2024/01/22 05:36:52;;;;;;;5.47;2.67;;;;;;;;;;5078762;28;20092;-79
2024/01/22 05:39:18;;;;;;;5.15;2.92;;;;;;;;;;5078997;28;20028;-78
2024/01/22 05:41:43;;;;;;;9.88;3.67;;;;;;;;;;5074404;28;20044;-79
2024/01/22 05:44:08;;;;;;;6.43;3.05;;;;;;;;;;5080277;28;20036;-79
2024/01/22 05:46:33;;;;;;;6.32;2.97;;;;;;;;;;5083541;28;20061;-79
2024/01/22 05:48:59;;;;;;;6.28;2.80;;;;;;;;;;5078593;28;20024;-78
2024/01/22 05:51:24;;;;;;;6.35;2.95;;;;;;;;;;5079837;28;20052;-79
2024/01/22 05:53:49;;;;;;;6.70;3.05;;;;;;;;;;5076099;28;20078;-79
2024/01/22 05:56:21;;;;;;;6.45;2.83;;;;;;;;;;5081912;28;20044;-79
2024/01/22 05:58:47;;;;;;;7.32;3.67;;;;;;;;;;5078080;28;20568;-79
2024/01/22 06:01:18;;;;;;;5.65;3.45;;;;;;;;;;5064743;28;20104;-79
2024/01/22 06:03:43;;;;;;;7.22;3.63;;;;;;;;;;5080258;28;20103;-79
2024/01/22 06:06:08;;;;;;;11.95;5.72;;;;;;;;;;5085271;28;20116;-79
2024/01/22 06:08:33;;;;;;;11.20;5.55;;;;;;;;;;5073322;28;20024;-79
2024/01/22 06:10:59;;;;;;;8.52;4.40;;;;;;;;;;5072687;28;20114;-79
2024/01/22 06:13:24;;;;;;;8.93;4.93;;;;;;;;;;5073811;28;20028;-79
2024/01/22 06:15:49;;;;;;;7.80;4.63;;;;;;;;;;5080381;28;20078;-79
2024/01/22 06:18:14;;;;;;;7.47;4.05;;;;;;;;;;5080596;28;20055;-79
2024/01/22 06:20:39;;;;;;;6.35;3.67;;;;;;;;;;5078063;28;20016;-79
2024/01/22 06:23:05;;;;;;;7.70;4.20;;;;;;;;;;5075838;28;20028;-79
2024/01/22 06:25:30;;;;;;;8.50;4.53;;;;;;;;;;5078278;28;20036;-79
2024/01/22 06:27:55;;;;;;;7.78;4.43;;;;;;;;;;5077217;28;20035;-79
2024/01/22 06:30:20;;;;;;;6.03;3.05;;;;;;;;;;5073262;28;20024;-79
2024/01/22 06:32:45;;;;;;;8.35;3.40;;;;;;;;;;5077034;28;20521;-79
2024/01/22 06:35:11;;;;;;;7.15;3.38;;;;;;;;;;5076155;28;20106;-79
2024/01/22 06:37:36;;;;;;;12.15;4.97;;;;;;;;;;5076910;28;20035;-79
2024/01/22 06:40:02;;;;;;;9.43;4.85;;;;;;;;;;5076722;28;20024;-79
2024/01/22 06:42:29;;;;;;;6.22;2.80;;;;;;;;;;5082373;28;20054;-79
2024/01/22 06:44:54;;;;;;;6.13;3.20;;;;;;;;;;5075802;28;20083;-79
2024/01/22 06:47:19;;;;;;;7.28;3.00;;;;;;;;;;5081643;28;20020;-79
2024/01/22 06:49:44;;;;;;;7.60;4.13;;;;;;;;;;5075541;28;20027;-79
2024/01/22 06:52:10;;;;;;;6.35;3.42;;;;;;;;;;5072918;28;20071;-79
2024/01/22 06:54:35;;;;;;;5.55;3.20;;;;;;;;;;5074769;28;20029;-79
2024/01/22 06:57:00;;;;;;;7.90;3.22;;;;;;;;;;5077537;28;20025;-79
2024/01/22 06:59:25;;;;;;;6.43;3.30;;;;;;;;;;5079365;28;20028;-79
2024/01/22 07:01:52;;;;;;;5.93;2.83;;;;;;;;;;5077151;28;20157;-79
2024/01/22 07:04:17;;;;;;;6.07;2.90;;;;;;;;;;5072588;28;20040;-79
2024/01/22 07:06:42;;;;;;;6.05;3.25;;;;;;;;;;5077327;28;20054;-79
2024/01/22 07:09:09;;;;;;;6.97;3.58;;;;;;;;;;5078702;28;20063;-79
2024/01/22 07:11:35;;;;;;;6.80;3.25;;;;;;;;;;5074108;28;20040;-79
2024/01/22 07:14:00;;;;;;;8.05;3.60;;;;;;;;;;5070807;28;20029;-79
2024/01/22 07:16:25;;;;;;;6.80;3.63;;;;;;;;;;5075856;28;20039;-79
2024/01/22 07:18:50;;;;;;;6.88;3.75;;;;;;;;;;5070861;28;20111;-79
2024/01/22 07:21:16;;;;;;;6.40;2.97;;;;;;;;;;5077410;28;20028;-79
2024/01/22 07:23:41;;;;;;;7.68;3.50;;;;;;;;;;5071215;28;20044;-79
2024/01/22 07:26:06;;;;;;;4.85;2.65;;;;;;;;;;5076170;28;20033;-79
2024/01/22 07:28:32;;;;;;;5.43;2.40;;;;;;;;;;5072518;28;20025;-79
2024/01/22 07:30:57;;;;;;;6.28;2.90;;;;;;;;;;5071016;28;20024;-80
2024/01/22 07:33:23;;;;;;;5.82;3.28;;;;;;;;;;5064966;28;20032;-79
2024/01/22 07:35:48;;;;;;;5.13;3.00;;;;;;;;;;5074620;28;20143;-79
2024/01/22 07:38:13;;;;;;;6.00;2.97;;;;;;;;;;5072652;28;20029;-79
2024/01/22 07:40:39;;;;;;;6.70;2.97;;;;;;;;;;5072092;28;20040;-79
2024/01/22 07:43:05;;;;;;;7.35;3.30;;;;;;;;;;5071849;28;20047;-79
2024/01/22 07:45:30;;;;;;;5.75;2.90;;;;;;;;;;5076765;28;20052;-79
2024/01/22 07:47:55;;;;;;;7.30;3.33;;;;;;;;;;5082359;28;20035;-80
2024/01/22 07:50:20;;;;;;;6.28;2.67;;;;;;;;;;5087653;28;20046;-80
2024/01/22 07:52:46;;;;;;;5.40;3.08;;;;;;;;;;5075399;28;20040;-79
2024/01/22 07:55:13;;;;;;;6.22;3.45;;;;;;;;;;5083357;28;20083;-79
2024/01/22 07:57:38;;;;;;;6.50;2.78;;;;;;;;;;5083948;28;20040;-79
2024/01/22 08:00:06;;;;;;;8.13;3.30;;;;;;;;;;5077993;28;20090;-79
2024/01/22 08:02:33;;;;;;;5.90;3.03;;;;;;;;;;5077312;28;20079;-80
2024/01/22 08:04:58;;;;;;;5.78;2.88;;;;;;;;;;5082525;28;20040;-79
2024/01/22 08:07:23;;;;;;;7.43;3.58;;;;;;;;;;5071715;28;20021;-79
2024/01/22 08:09:48;;;;;;;5.93;2.72;;;;;;;;;;5074006;28;20032;-79
2024/01/22 08:12:14;;;;;;;8.18;3.00;;;;;;;;;;5071290;28;20028;-79
2024/01/22 08:14:39;;;;;;;6.97;2.90;;;;;;;;;;5080312;28;20039;-79
2024/01/22 08:17:04;;;;;;;4.00;1.52;;;;;;;;;;5074888;28;20115;-79
2024/01/22 08:19:32;;;;;;;3.83;1.15;;;;;;;;;;5073784;28;20491;-79
2024/01/22 08:21:57;;;;;;;2.55;0.63;;;;;;;;;;5070583;28;20032;-80
2024/01/22 08:24:23;;;;;;;2.63;1.05;;;;;;;;;;5077459;28;20033;-80
2024/01/22 08:26:48;;;;;;;2.58;0.75;;;;;;;;;;5074676;28;20078;-80
2024/01/22 08:29:14;;;;;;;2.55;0.73;;;;;;;;;;5069933;28;20044;-80
2024/01/22 08:31:39;;;;;;;1.80;0.75;;;;;;;;;;5074136;28;20511;-79
2024/01/22 08:34:04;;;;;;;1.67;0.57;;;;;;;;;;5072931;28;20032;-80
2024/01/22 08:36:29;;;;;;;1.50;0.50;;;;;;;;;;5082552;28;20030;-79
2024/01/22 08:38:54;;;;;;;2.08;0.73;;;;;;;;;;5075430;28;20043;-80
2024/01/22 08:41:22;;;;;;;1.88;0.70;;;;;;;;;;5076712;28;20107;-79
2024/01/22 08:43:48;;;;;;;2.85;0.98;;;;;;;;;;5095987;28;20025;-80
2024/01/22 08:46:13;;;;;;;2.58;0.80;;;;;;;;;;5073290;28;20082;-80
2024/01/22 08:48:39;;;;;;;2.08;0.90;;;;;;;;;;5071539;28;20044;-80
2024/01/22 08:51:04;;;;;;;2.92;0.98;;;;;;;;;;5071142;28;20408;-80
2024/01/22 08:53:29;;;;;;;1.92;0.60;;;;;;;;;;5075651;28;20120;-80
2024/01/22 08:55:54;;;;;;;2.83;1.05;;;;;;;;;;5091855;28;20037;-80
2024/01/22 08:58:19;;;;;;;3.03;0.80;;;;;;;;;;5072522;28;20032;-80
2024/01/22 09:00:44;;;;;;;3.47;1.27;;;;;;;;;;5070003;28;20105;-80
2024/01/22 09:03:09;;;;;;;3.50;1.40;;;;;;;;;;5075660;28;20032;-80
2024/01/22 09:05:35;;;;;;;2.47;1.10;;;;;;;;;;5076032;28;20501;-80
2024/01/22 09:08:00;;;;;;;5.70;1.20;;;;;;;;;;5075145;28;20036;-80
2024/01/22 09:10:26;;;;;;;2.92;0.90;;;;;;;;;;5070904;28;20107;-80
2024/01/22 09:12:51;;;;;;;3.35;1.20;;;;;;;;;;5072952;28;20131;-80
2024/01/22 09:15:17;;;;;;;1.83;0.73;;;;;;;;;;5079310;28;20040;-80
2024/01/22 09:17:43;;;;;;;1.98;0.73;;;;;;;;;;5076279;28;20036;-80
2024/01/22 09:20:09;;;;;;;2.60;0.80;;;;;;;;;;5071227;28;20033;-80
2024/01/22 09:22:34;;;;;;;2.38;1.10;;;;;;;;;;5070252;28;20095;-80
2024/01/22 09:24:59;;;;;;;3.63;0.80;;;;;;;;;;5074212;28;20101;-80
2024/01/22 09:27:25;;;;;;;1.58;0.60;;;;;;;;;;5074324;28;20036;-80
2024/01/22 09:29:50;;;;;;;3.67;0.95;;;;;;;;;;5077114;28;20024;-80
2024/01/22 09:32:15;;;;;;;1.83;0.60;;;;;;;;;;5083875;28;20032;-80
2024/01/22 09:34:40;;;;;;;2.55;0.60;;;;;;;;;;5079531;28;20032;-80
2024/01/22 09:37:05;;;;;;;1.80;0.70;;;;;;;;;;5088652;28;20074;-80
2024/01/22 09:39:31;;;;;;;3.17;1.10;;;;;;;;;;5074819;28;20109;-80
2024/01/22 09:41:59;;;;;;;1.80;0.63;;;;;;;;;;5084841;28;20153;-80
2024/01/22 09:44:25;;;;;;;1.95;0.70;;;;;;;;;;5074275;28;20020;-79
2024/01/22 09:46:51;;;;;;;2.60;0.82;;;;;;;;;;5080896;28;20531;-80
2024/01/22 09:49:16;;;;;;;2.15;0.75;;;;;;;;;;5086774;28;20097;-80
2024/01/22 09:51:42;;;;;;;4.03;0.90;;;;;;;;;;5077519;28;20273;-80
2024/01/22 09:54:10;;;;;;;4.72;1.17;;;;;;;;;;5081425;28;20025;-80
2024/01/22 09:56:36;;;;;;;1.98;0.80;;;;;;;;;;5079118;28;20054;-80
2024/01/22 09:59:03;;;;;;;3.08;1.20;;;;;;;;;;5073928;28;20032;-80
2024/01/22 10:01:28;;;;;;;1.75;0.80;;;;;;;;;;5079438;28;20033;-80
2024/01/22 10:03:55;;;;;;;1.73;0.70;;;;;;;;;;5079808;28;20039;-80
2024/01/22 10:06:21;;;;;;;2.03;0.60;;;;;;;;;;5078896;28;20070;-80
2024/01/22 10:08:55;;;;;;;1.73;0.60;;;;;;;;;;5082045;28;20056;-80
2024/01/22 10:11:20;;;;;;;4.03;1.52;;;;;;;;;;5078437;28;20076;-80
2024/01/22 10:13:52;;;;;;;1.77;0.57;;;;;;;;;;5072990;28;20056;-80
2024/01/22 10:16:18;;;;;;;1.88;0.90;;;;;;;;;;5074549;28;20017;-80
2024/01/22 10:19:10;;;;;;;2.03;0.82;;;;;;;;;;5074655;28;20400;-80
2024/01/22 10:21:36;;;;;;;2.15;0.70;;;;;;;;;;5058578;28;20040;-80
2024/01/22 10:24:06;;;;;;;3.13;0.95;;;;;;;;;;5086845;28;20110;-80
2024/01/22 10:26:32;;;;;;;2.65;0.70;;;;;;;;;;5084464;28;20043;-80
2024/01/22 10:29:28;;;;;;;2.15;0.80;;;;;;;;;;5076946;28;20032;-80
2024/01/22 10:32:00;;;;;;;3.42;1.20;;;;;;;;;;5082114;28;20054;-80
2024/01/22 10:34:25;;;;;;;5.93;0.98;;;;;;;;;;5079110;28;20507;-80
2024/01/22 10:37:04;;;;;;;2.22;0.77;;;;;;;;;;5075110;28;20021;-80
2024/01/22 10:39:29;;;;;;;2.78;0.70;;;;;;;;;;5074594;28;20043;-80
2024/01/22 10:41:54;;;;;;;2.20;0.77;;;;;;;;;;5073963;28;20032;-80
2024/01/22 10:44:20;;;;;;;3.05;0.52;;;;;;;;;;5079218;28;20094;-80
2024/01/22 10:46:45;;;;;;;2.28;0.60;;;;;;;;;;5073647;28;20032;-80
2024/01/22 10:49:11;;;;;;;2.90;0.70;;;;;;;;;;5071147;28;20044;-80
2024/01/22 10:51:37;;;;;;;1.52;0.60;;;;;;;;;;5073631;28;20039;-80
2024/01/22 10:54:03;;;;;;;3.50;0.95;;;;;;;;;;5073435;28;20041;-80
2024/01/22 10:56:32;;;;;;;2.17;0.80;;;;;;;;;;5084559;28;20551;-80
2024/01/22 10:58:59;;;;;;;2.83;0.93;;;;;;;;;;5076752;28;20124;-80
2024/01/22 11:01:24;;;;;;;2.67;0.80;;;;;;;;;;5080722;28;20477;-80
2024/01/22 11:03:51;;;;;;;2.72;0.90;;;;;;;;;;5080653;28;20120;-80
2024/01/22 11:06:19;;;;;;;2.83;0.90;;;;;;;;;;5080444;28;20511;-80
2024/01/22 11:08:48;;;;;;;4.60;1.10;;;;;;;;;;5075475;28;20028;-80
2024/01/22 11:11:14;;;;;;;2.97;0.90;;;;;;;;;;5080143;28;20063;-80
2024/01/22 11:13:39;;;;;;;2.03;0.80;;;;;;;;;;5073405;28;20021;-80
2024/01/22 11:16:05;;;;;;;3.75;1.20;;;;;;;;;;5078464;28;20032;-80
2024/01/22 11:18:30;;;;;;;2.05;0.80;;;;;;;;;;5072413;28;20021;-80
2024/01/22 11:21:14;;;;;;;3.05;0.77;;;;;;;;;;5087701;28;20400;-80
2024/01/22 11:23:39;;;;;;;3.05;0.88;;;;;;;;;;5079001;28;20043;-80
2024/01/22 11:26:10;;;;;;;3.60;1.42;;;;;;;;;;5078649;28;20497;-79
2024/01/22 11:28:35;;;;;;;4.65;1.55;;;;;;;;;;5079202;28;20025;-80
2024/01/22 11:31:01;;;;;;;4.22;1.42;;;;;;;;;;5072879;28;20044;-80
2024/01/22 11:33:26;;;;;;;3.78;1.15;;;;;;;;;;5076925;28;20114;-80
2024/01/22 11:35:52;;;;;;;3.33;1.20;;;;;;;;;;5079091;28;20059;-81
2024/01/22 11:38:36;;;;;;;4.40;1.20;;;;;;;;;;5071682;28;20032;-80
2024/01/22 11:41:01;;;;;;;6.68;1.88;;;;;;;;;;5072668;28;20072;-81
2024/01/22 11:43:27;;;;;;;3.22;0.93;;;;;;;;;;5072574;28;20095;-80
2024/01/22 11:45:56;;;;;;;5.22;1.27;;;;;;;;;;5080854;28;20061;-80
2024/01/22 11:48:21;;;;;;;2.35;0.68;;;;;;;;;;5076216;28;20024;-80
2024/01/22 11:51:00;;;;;;;2.75;0.80;;;;;;;;;;5076714;28;20043;-80
2024/01/22 11:53:25;;;;;;;3.38;0.90;;;;;;;;;;5077722;28;20042;-80
2024/01/22 11:56:01;;;;;;;4.45;1.10;;;;;;;;;;5078321;28;20028;-80
2024/01/22 11:58:27;;;;;;;3.08;1.17;;;;;;;;;;5074648;28;20458;-80
2024/01/22 12:00:52;;;;;;;2.75;0.90;;;;;;;;;;5062214;28;20056;-81
2024/01/22 12:03:23;;;;;;;3.22;0.90;;;;;;;;;;5086267;28;20020;-81
2024/01/22 12:05:56;;;;;;;3.78;1.10;;;;;;;;;;5080714;28;20032;-80
2024/01/22 12:08:21;;;;;;;3.50;0.90;;;;;;;;;;5070640;28;20024;-80
2024/01/22 12:10:47;;;;;;;4.15;1.05;;;;;;;;;;5070840;28;20445;-80
2024/01/22 12:13:12;;;;;;;2.95;0.80;;;;;;;;;;5071991;28;20066;-80
2024/01/22 12:15:37;;;;;;;3.22;0.95;;;;;;;;;;5076414;28;20024;-80
2024/01/22 12:18:02;;;;;;;3.47;1.08;;;;;;;;;;5072412;28;20374;-80
2024/01/22 12:20:29;;;;;;;2.83;1.00;;;;;;;;;;5073142;28;20032;-80
2024/01/22 12:23:04;;;;;;;1.25;0.50;;;;;;;;;;5075185;28;20119;-80
2024/01/22 12:25:40;;;;;;;8.57;1.35;;;;;;;;;;5073173;28;20469;-81
2024/01/22 12:28:09;;;;;;;3.03;1.20;;;;;;;;;;5078626;28;20031;-80
2024/01/22 12:30:34;;;;;;;2.80;1.00;;;;;;;;;;5083112;28;20495;-80
2024/01/22 12:32:59;;;;;;;2.33;0.68;;;;;;;;;;5076862;28;20040;-81
2024/01/22 12:35:25;;;;;;;2.65;0.88;;;;;;;;;;5073978;28;20085;-80
2024/01/22 12:37:50;;;;;;;2.33;0.80;;;;;;;;;;5077236;28;20400;-80
2024/01/22 12:40:16;;;;;;;1.27;0.50;;;;;;;;;;5072614;28;20273;-80
2024/01/22 12:42:46;;;;;;;1.38;0.57;;;;;;;;;;5079595;28;20503;-80
2024/01/22 12:45:12;;;;;;;2.83;0.75;;;;;;;;;;5076024;28;20035;-80
2024/01/22 12:47:38;;;;;;;2.78;0.85;;;;;;;;;;5076243;28;20017;-80
2024/01/22 12:50:04;;;;;;;2.33;0.65;;;;;;;;;;5071670;28;20488;-80
2024/01/22 12:52:29;;;;;;;2.47;0.80;;;;;;;;;;5071587;28;20046;-80
2024/01/22 12:54:55;;;;;;;3.30;0.82;;;;;;;;;;5070347;28;20506;-80
2024/01/22 12:57:20;;;;;;;2.22;0.77;;;;;;;;;;5060854;28;20028;-80
2024/01/22 12:59:46;;;;;;;5.65;1.25;;;;;;;;;;5073114;28;20028;-80
2024/01/22 13:02:11;;;;;;;3.00;1.00;;;;;;;;;;5077435;28;20503;-81
2024/01/22 13:04:37;;;;;;;3.20;1.08;;;;;;;;;;5078370;28;20025;-80
2024/01/22 13:07:02;;;;;;;2.38;0.90;;;;;;;;;;5083297;28;20029;-80
2024/01/22 13:09:27;;;;;;;3.38;1.02;;;;;;;;;;5075156;28;20078;-80
2024/01/22 13:11:52;;;;;;;2.80;1.10;;;;;;;;;;5074342;28;20032;-80
2024/01/22 13:14:17;;;;;;;5.00;0.80;;;;;;;;;;5075029;28;20463;-80
2024/01/22 13:16:42;;;;;;;4.28;0.80;;;;;;;;;;5080108;28;20025;-80
2024/01/22 13:19:08;;;;;;;5.70;1.13;;;;;;;;;;5074816;28;20444;-80
2024/01/22 13:21:33;;;;;;;2.35;0.80;;;;;;;;;;5075709;28;20035;-80
2024/01/22 13:23:58;;;;;;;2.08;0.90;;;;;;;;;;5075556;28;20023;-80
2024/01/22 13:26:23;;;;;;;1.70;0.68;;;;;;;;;;5085861;28;20103;-80
2024/01/22 13:28:48;;;;;;;2.50;0.80;;;;;;;;;;5074705;28;20040;-80
2024/01/22 13:31:14;;;;;;;2.72;1.05;;;;;;;;;;5074910;28;20025;-80
2024/01/22 13:33:39;;;;;;;2.25;0.80;;;;;;;;;;5080406;28;20040;-80
2024/01/22 13:36:05;;;;;;;2.97;0.90;;;;;;;;;;5081491;28;20028;-80
2024/01/22 13:38:36;;;;;;;2.70;1.00;;;;;;;;;;5075701;28;20095;-80
2024/01/22 13:41:04;;;;;;;3.25;0.80;;;;;;;;;;5073407;28;20039;-80
2024/01/22 13:43:29;;;;;;;2.90;1.00;;;;;;;;;;5074367;28;20055;-80
2024/01/22 13:45:54;;;;;;;2.60;0.88;;;;;;;;;;5084429;28;20032;-80
2024/01/22 13:48:21;;;;;;;3.58;0.90;;;;;;;;;;5074935;28;20055;-80
2024/01/22 13:50:46;;;;;;;2.38;0.88;;;;;;;;;;5073217;28;20408;-80
2024/01/22 13:53:12;;;;;;;4.40;1.08;;;;;;;;;;5074465;28;20048;-80
2024/01/22 13:55:37;;;;;;;3.85;1.08;;;;;;;;;;5081541;28;20032;-80
2024/01/22 13:58:02;;;;;;;2.47;0.80;;;;;;;;;;5076391;28;20032;-80
2024/01/22 14:00:27;;;;;;;3.10;0.85;;;;;;;;;;5074540;28;20069;-80
2024/01/22 14:02:52;;;;;;;4.80;1.10;;;;;;;;;;5079543;28;20036;-80
2024/01/22 14:05:18;;;;;;;1.83;0.68;;;;;;;;;;5074471;28;20035;-80
2024/01/22 14:07:43;;;;;;;2.60;1.00;;;;;;;;;;5086922;28;20032;-80
2024/01/22 14:10:12;;;;;;;2.55;0.93;;;;;;;;;;5072362;28;20025;-80
2024/01/22 14:12:37;;;;;;;5.07;0.82;;;;;;;;;;5073762;28;20112;-79
2024/01/22 14:15:02;;;;;;;5.68;0.95;;;;;;;;;;5073255;28;20060;-79
2024/01/22 14:17:27;;;;;;;3.90;0.80;;;;;;;;;;5084627;28;20032;-79
2024/01/22 14:19:53;;;;;;;2.78;0.93;;;;;;;;;;5072348;28;20725;-79
2024/01/22 14:22:20;;;;;;;2.45;1.00;;;;;;;;;;5075952;28;20032;-79
2024/01/22 14:24:45;;;;;;;1.90;0.80;;;;;;;;;;5082900;28;20035;-79
2024/01/22 14:27:10;;;;;;;2.93;1.03;;;;;;;;;;5086421;28;20031;-79
2024/01/22 14:29:35;;;;;;;2.73;0.83;;;;;;;;;;5073638;28;20673;-79
2024/01/22 14:32:00;;;;;;;7.10;1.43;;;;;;;;;;5080355;28;20273;-78